createdAt,value
2019-01-26T00:00:11.740Z,66.70
2019-01-26T00:01:11.612Z,67.20
2019-01-26T00:02:11.640Z,65.90
2019-01-26T00:03:11.545Z,66.50
2019-01-26T00:04:11.512Z,69.20
2019-01-26T00:05:11.473Z,71.90
2019-01-26T00:06:11.563Z,70.50
2019-01-26T00:07:11.423Z,65.40
2019-01-26T00:08:11.484Z,69.40
2019-01-26T00:09:11.365Z,66.80
2019-01-26T00:10:11.322Z,71.30
2019-01-26T00:11:11.396Z,73.60
2019-01-26T00:12:11.263Z,70.40
2019-01-26T00:13:11.302Z,69.20
2019-01-26T00:14:11.203Z,72.20
2019-01-26T00:15:11.176Z,75.50
2019-01-26T00:16:11.146Z,73.30
2019-01-26T00:17:11.227Z,71.00
2019-01-26T00:18:11.080Z,71.30
2019-01-26T00:19:11.132Z,71.40
2019-01-26T00:20:11.013Z,74.50
2019-01-26T00:21:10.982Z,71.10
2019-01-26T00:22:11.051Z,73.40
2019-01-26T00:23:10.923Z,72.20
2019-01-26T00:24:10.972Z,71.50
2019-01-26T00:25:10.860Z,71.10
2019-01-26T00:26:10.832Z,73.10
2019-01-26T00:27:10.796Z,71.80
2019-01-26T00:28:10.883Z,77.50
2019-01-26T00:29:10.742Z,74.90
2019-01-26T00:30:10.797Z,77.00
2019-01-26T00:31:10.674Z,75.10
2019-01-26T00:32:10.661Z,77.30
2019-01-26T00:33:10.717Z,73.70
2019-01-26T00:34:10.582Z,74.10
2019-01-26T00:35:10.626Z,77.20
2019-01-26T00:36:10.521Z,72.40
2019-01-26T00:37:10.492Z,71.70
2019-01-26T00:38:10.460Z,79.40
2019-01-26T00:39:10.540Z,76.70
2019-01-26T00:40:10.401Z,77.30
2019-01-26T00:41:10.462Z,76.20
2019-01-26T00:42:10.342Z,77.20
2019-01-26T00:43:10.310Z,76.10
2019-01-26T00:44:10.294Z,75.40
2019-01-26T00:45:10.300Z,77.20
2019-01-26T00:46:10.212Z,79.00
2019-01-26T00:47:10.293Z,79.60
2019-01-26T00:48:10.156Z,77.80
2019-01-26T00:49:10.194Z,80.20
2019-01-26T00:50:10.091Z,79.60
2019-01-26T00:51:10.112Z,89.00
2019-01-26T00:52:10.042Z,84.20
2019-01-26T00:53:10.112Z,84.80
2019-01-26T00:54:10.023Z,78.70
2019-01-26T00:55:09.942Z,88.70
2019-01-26T00:56:09.956Z,87.70
2019-01-26T00:57:09.886Z,86.10
2019-01-26T00:58:09.940Z,86.00
2019-01-26T00:59:09.882Z,87.30
2019-01-26T01:00:09.793Z,84.90
2019-01-26T01:01:09.861Z,84.60
2019-01-26T01:02:09.723Z,89.50
2019-01-26T01:03:09.774Z,91.10
2019-01-26T01:04:09.674Z,97.10
2019-01-26T01:05:09.635Z,87.10
2019-01-26T01:06:09.602Z,89.70
2019-01-26T01:07:09.602Z,90.40
2019-01-26T01:08:09.542Z,92.70
2019-01-26T01:09:09.602Z,89.60
2019-01-26T01:10:09.482Z,86.20
2019-01-26T01:11:09.453Z,86.20
2019-01-26T01:12:09.434Z,91.40
2019-01-26T01:13:09.420Z,89.70
2019-01-26T01:14:09.368Z,92.80
2019-01-26T01:15:09.443Z,89.70
2019-01-26T01:16:09.315Z,91.40
2019-01-26T01:17:09.350Z,95.00
2019-01-26T01:18:09.244Z,92.70
2019-01-26T01:19:09.261Z,98.10
2019-01-26T01:20:09.201Z,96.70
2019-01-26T01:21:09.182Z,90.70
2019-01-26T01:22:09.125Z,95.70
2019-01-26T01:23:09.182Z,95.60
2019-01-26T01:24:09.065Z,97.70
2019-01-26T01:25:09.092Z,96.60
2019-01-26T01:26:09.989Z,97.80
2019-01-26T01:27:09.001Z,92.60
2019-01-26T01:28:08.942Z,96.10
2019-01-26T01:29:09.015Z,95.50
2019-01-26T01:30:08.871Z,99.90
2019-01-26T01:31:08.934Z,97.60
2019-01-26T01:32:08.823Z,93.10
2019-01-26T01:33:08.784Z,101.40
2019-01-26T01:34:08.764Z,105.00
2019-01-26T01:35:08.741Z,99.70
2019-01-26T01:36:08.691Z,98.10
2019-01-26T01:37:08.751Z,99.10
2019-01-26T01:38:08.631Z,98.00
2019-01-26T01:39:08.600Z,98.00
2019-01-26T01:40:08.670Z,99.80
2019-01-26T01:41:08.541Z,103.80
2019-01-26T01:42:08.591Z,102.10
2019-01-26T01:43:08.482Z,103.20
2019-01-26T01:44:08.453Z,106.00
2019-01-26T01:45:08.434Z,103.60
2019-01-26T01:46:08.511Z,103.10
2019-01-26T01:47:08.361Z,101.70
2019-01-26T01:48:08.410Z,102.20
2019-01-26T01:49:08.315Z,95.80
2019-01-26T01:50:08.274Z,101.40
2019-01-26T01:51:08.332Z,103.50
2019-01-26T01:52:08.214Z,101.70
2019-01-26T01:53:08.240Z,101.90
2019-01-26T01:54:08.164Z,99.00
2019-01-26T01:55:08.122Z,101.90
2019-01-26T01:56:08.090Z,106.10
2019-01-26T01:57:08.173Z,108.70
2019-01-26T01:58:08.031Z,102.10
2019-01-26T01:59:08.073Z,104.60
2019-01-26T02:00:07.974Z,107.50
2019-01-26T02:01:07.943Z,106.70
2019-01-26T02:02:07.990Z,113.30
2019-01-26T02:03:07.882Z,109.80
2019-01-26T02:04:07.900Z,113.20
2019-01-26T02:05:07.822Z,112.70
2019-01-26T02:06:07.781Z,112.70
2019-01-26T02:07:07.776Z,107.50
2019-01-26T02:08:07.826Z,108.90
2019-01-26T02:09:07.703Z,105.90
2019-01-26T02:10:07.735Z,104.60
2019-01-26T02:11:07.633Z,103.40
2019-01-26T02:12:07.600Z,103.70
2019-01-26T02:13:07.582Z,112.00
2019-01-26T02:14:07.654Z,110.90
2019-01-26T02:15:07.513Z,107.20
2019-01-26T02:16:07.563Z,110.90
2019-01-26T02:17:07.451Z,111.30
2019-01-26T02:18:07.433Z,121.20
2019-01-26T02:19:07.483Z,115.50
2019-01-26T02:20:07.362Z,113.50
2019-01-26T02:21:07.394Z,112.50
2019-01-26T02:22:07.303Z,109.80
2019-01-26T02:23:07.273Z,114.60
2019-01-26T02:24:07.242Z,110.70
2019-01-26T02:25:07.312Z,115.40
2019-01-26T02:26:07.182Z,123.30
2019-01-26T02:27:07.221Z,119.90
2019-01-26T02:28:07.124Z,117.10
2019-01-26T02:29:07.091Z,119.80
2019-01-26T02:30:07.141Z,113.20
2019-01-26T02:31:07.031Z,119.40
2019-01-26T02:32:07.052Z,117.50
2019-01-26T02:33:06.984Z,121.90
2019-01-26T02:34:06.942Z,130.20
2019-01-26T02:35:06.938Z,123.70
2019-01-26T02:36:06.972Z,124.40
2019-01-26T02:37:06.851Z,122.60
2019-01-26T02:38:06.892Z,114.20
2019-01-26T02:39:06.792Z,118.40
2019-01-26T02:40:06.764Z,115.20
2019-01-26T02:41:06.802Z,124.00
2019-01-26T02:42:06.716Z,118.20
2019-01-26T02:43:06.714Z,118.30
2019-01-26T02:44:06.639Z,121.40
2019-01-26T02:45:06.614Z,118.60
2019-01-26T02:46:06.583Z,125.00
2019-01-26T02:47:06.643Z,119.70
2019-01-26T02:48:06.522Z,125.00
2019-01-26T02:49:06.544Z,121.00
2019-01-26T02:50:06.460Z,122.10
2019-01-26T02:51:06.441Z,119.20
2019-01-26T02:52:06.408Z,119.40
2019-01-26T02:53:06.474Z,117.80
2019-01-26T02:54:06.352Z,120.50
2019-01-26T02:55:06.385Z,122.10
2019-01-26T02:56:06.290Z,118.30
2019-01-26T02:57:06.277Z,123.10
2019-01-26T02:58:06.300Z,121.60
2019-01-26T02:59:06.208Z,122.90
2019-01-26T03:00:06.204Z,119.10
2019-01-26T03:01:06.133Z,122.80
2019-01-26T03:02:06.114Z,121.30
2019-01-26T03:03:06.123Z,113.70
2019-01-26T03:04:06.053Z,124.70
2019-01-26T03:05:06.151Z,127.00
2019-01-26T03:06:05.995Z,117.20
2019-01-26T03:07:06.057Z,119.30
2019-01-26T03:08:05.937Z,117.40
2019-01-26T03:09:05.970Z,119.20
2019-01-26T03:10:05.868Z,123.20
2019-01-26T03:11:05.885Z,118.10
2019-01-26T03:12:05.805Z,117.20
2019-01-26T03:13:05.801Z,114.40
2019-01-26T03:14:05.782Z,117.20
2019-01-26T03:15:05.722Z,119.40
2019-01-26T03:16:05.809Z,119.30
2019-01-26T03:17:06.492Z,109.30
2019-01-26T03:18:05.726Z,113.10
2019-01-26T03:19:05.624Z,109.30
2019-01-26T03:20:05.630Z,112.50
2019-01-26T03:21:05.548Z,119.10
2019-01-26T03:22:05.538Z,115.10
2019-01-26T03:23:05.485Z,116.80
2019-01-26T03:24:05.466Z,115.20
2019-01-26T03:25:05.423Z,115.80
2019-01-26T03:26:05.480Z,113.40
2019-01-26T03:27:05.382Z,114.50
2019-01-26T03:28:05.399Z,118.90
2019-01-26T03:29:05.303Z,120.90
2019-01-26T03:30:05.299Z,123.10
2019-01-26T03:31:05.231Z,117.80
2019-01-26T03:32:05.307Z,121.00
2019-01-26T03:33:05.216Z,114.90
2019-01-26T03:34:05.192Z,121.10
2019-01-26T03:35:05.135Z,119.60
2019-01-26T03:36:05.217Z,128.70
2019-01-26T03:37:05.062Z,115.70
2019-01-26T03:38:05.122Z,122.90
2019-01-26T03:39:05.004Z,114.20
2019-01-26T03:40:05.058Z,116.30
2019-01-26T03:41:05.046Z,113.20
2019-01-26T03:42:04.930Z,119.10
2019-01-26T03:43:04.945Z,123.60
2019-01-26T03:44:04.856Z,120.10
2019-01-26T03:45:04.854Z,117.00
2019-01-26T03:46:04.791Z,119.70
2019-01-26T03:47:04.863Z,118.40
2019-01-26T03:48:04.736Z,119.00
2019-01-26T03:49:04.773Z,123.60
2019-01-26T03:50:04.672Z,120.60
2019-01-26T03:51:04.682Z,123.20
2019-01-26T03:52:04.692Z,124.20
2019-01-26T03:53:04.593Z,124.40
2019-01-26T03:54:04.601Z,118.50
2019-01-26T03:55:04.522Z,124.70
2019-01-26T03:56:04.612Z,120.20
2019-01-26T03:57:04.473Z,125.30
2019-01-26T03:58:04.443Z,124.40
2019-01-26T03:59:04.432Z,124.20
2019-01-26T04:00:04.385Z,121.90
2019-01-26T04:01:04.455Z,123.10
2019-01-26T04:02:04.322Z,126.60
2019-01-26T04:03:04.297Z,123.70
2019-01-26T04:04:04.262Z,121.60
2019-01-26T04:05:04.263Z,124.70
2019-01-26T04:06:04.206Z,129.00
2019-01-26T04:07:04.271Z,127.30
2019-01-26T04:08:04.144Z,120.70
2019-01-26T04:09:04.113Z,125.70
2019-01-26T04:10:04.193Z,130.00
2019-01-26T04:11:04.052Z,128.70
2019-01-26T04:12:04.103Z,123.40
2019-01-26T04:13:04.004Z,127.40
2019-01-26T04:14:03.961Z,128.80
2019-01-26T04:15:03.932Z,123.90
2019-01-26T04:16:04.026Z,127.90
2019-01-26T04:17:03.872Z,128.80
2019-01-26T04:18:03.934Z,127.60
2019-01-26T04:19:03.818Z,130.90
2019-01-26T04:20:03.792Z,132.70
2019-01-26T04:21:03.855Z,134.50
2019-01-26T04:22:03.722Z,128.50
2019-01-26T04:23:03.763Z,128.30
2019-01-26T04:24:03.663Z,126.70
2019-01-26T04:25:03.656Z,128.60
2019-01-26T04:26:03.617Z,130.30
2019-01-26T04:27:03.685Z,129.80
2019-01-26T04:28:03.553Z,127.90
2019-01-26T04:29:03.592Z,136.90
2019-01-26T04:30:03.492Z,136.40
2019-01-26T04:31:03.465Z,137.60
2019-01-26T04:32:03.442Z,138.60
2019-01-26T04:33:03.521Z,137.00
2019-01-26T04:34:03.373Z,134.90
2019-01-26T04:35:03.424Z,136.30
2019-01-26T04:36:03.313Z,129.60
2019-01-26T04:37:03.343Z,134.30
2019-01-26T04:38:03.254Z,137.70
2019-01-26T04:39:03.241Z,139.10
2019-01-26T04:40:03.210Z,136.40
2019-01-26T04:41:03.266Z,131.70
2019-01-26T04:42:03.166Z,134.60
2019-01-26T04:43:03.118Z,130.20
2019-01-26T04:44:03.172Z,136.40
2019-01-26T04:45:03.058Z,133.70
2019-01-26T04:46:03.082Z,135.30
2019-01-26T04:47:03.011Z,123.70
2019-01-26T04:48:02.968Z,127.90
2019-01-26T04:49:03.002Z,125.60
2019-01-26T04:50:02.903Z,121.50
2019-01-26T04:51:02.915Z,125.60
2019-01-26T04:52:02.842Z,126.50
2019-01-26T04:53:02.814Z,118.10
2019-01-26T04:54:02.793Z,119.40
2019-01-26T04:55:02.837Z,116.00
2019-01-26T04:56:02.736Z,117.60
2019-01-26T04:57:02.745Z,119.70
2019-01-26T04:58:02.676Z,116.60
2019-01-26T04:59:02.632Z,118.90
2019-01-26T05:00:02.665Z,116.40
2019-01-26T05:01:02.596Z,122.30
2019-01-26T05:02:02.575Z,117.80
2019-01-26T05:03:02.526Z,114.70
2019-01-26T05:04:02.492Z,112.20
2019-01-26T05:05:02.460Z,116.50
2019-01-26T05:06:02.494Z,111.80
2019-01-26T05:07:02.406Z,112.70
2019-01-26T05:08:02.407Z,111.90
2019-01-26T05:09:02.342Z,110.70
2019-01-26T05:10:02.315Z,108.90
2019-01-26T05:11:02.323Z,110.70
2019-01-26T05:12:02.263Z,109.60
2019-01-26T05:13:02.337Z,102.90
2019-01-26T05:14:02.202Z,104.70
2019-01-26T05:15:02.243Z,105.60
2019-01-26T05:16:02.144Z,104.10
2019-01-26T05:17:02.153Z,105.30
2019-01-26T05:18:02.082Z,102.50
2019-01-26T05:19:02.062Z,97.60
2019-01-26T05:20:02.024Z,103.10
2019-01-26T05:21:01.996Z,104.90
2019-01-26T05:22:01.982Z,101.70
2019-01-26T05:23:01.932Z,102.10
2019-01-26T05:24:01.996Z,100.20
2019-01-26T05:25:01.872Z,96.90
2019-01-26T05:26:01.903Z,98.60
2019-01-26T05:27:01.825Z,100.60
2019-01-26T05:28:01.812Z,92.50
2019-01-26T05:29:01.763Z,94.50
2019-01-26T05:30:01.826Z,95.10
2019-01-26T05:31:01.702Z,106.60
2019-01-26T05:32:01.672Z,95.80
2019-01-26T05:33:01.642Z,94.20
2019-01-26T05:34:01.652Z,97.30
2019-01-26T05:35:01.613Z,98.70
2019-01-26T05:36:01.663Z,101.60
2019-01-26T05:37:01.549Z,96.10
2019-01-26T05:38:01.495Z,100.00
2019-01-26T05:39:01.573Z,101.00
2019-01-26T05:40:01.443Z,95.30
2019-01-26T05:41:01.482Z,101.90
2019-01-26T05:42:01.387Z,106.20
2019-01-26T05:43:01.343Z,97.90
2019-01-26T05:44:01.327Z,97.50
2019-01-26T05:45:01.303Z,105.50
2019-01-26T05:46:01.275Z,97.60
2019-01-26T05:47:01.322Z,103.40
2019-01-26T05:48:01.218Z,105.50
2019-01-26T05:49:01.171Z,104.30
2019-01-26T05:50:01.144Z,101.20
2019-01-26T05:51:01.140Z,102.50
2019-01-26T05:52:01.081Z,104.50
2019-01-26T05:53:01.165Z,106.90
2019-01-26T05:54:01.035Z,106.60
2019-01-26T05:55:01.062Z,101.90
2019-01-26T05:56:00.961Z,98.50
2019-01-26T05:57:00.974Z,104.90
2019-01-26T05:58:00.918Z,98.40
2019-01-26T05:59:00.987Z,105.60
2019-01-26T06:00:00.853Z,99.10
2019-01-26T06:01:00.823Z,101.40
2019-01-26T06:02:00.904Z,103.90
2019-01-26T06:03:00.773Z,100.30
2019-01-26T06:04:00.813Z,92.40
2019-01-26T06:05:00.719Z,95.10
2019-01-26T06:06:00.731Z,101.00
2019-01-26T06:07:00.648Z,102.30
2019-01-26T06:08:00.731Z,92.70
2019-01-26T06:09:00.584Z,101.10
2019-01-26T06:10:00.655Z,100.70
2019-01-26T06:11:00.553Z,97.30
2019-01-26T06:12:00.510Z,99.90
2019-01-26T06:13:00.564Z,94.60
2019-01-26T06:14:00.442Z,94.80
2019-01-26T06:15:00.481Z,95.50
2019-01-26T06:16:00.381Z,99.80
2019-01-26T06:17:00.356Z,93.10
2019-01-26T06:18:00.394Z,89.10
2019-01-26T06:19:00.305Z,89.50
2019-01-26T06:20:00.292Z,91.50
2019-01-26T06:21:00.241Z,90.00
2019-01-26T06:22:00.212Z,92.30
2019-01-26T06:23:00.181Z,90.20
2019-01-26T06:24:00.222Z,91.10
2019-01-26T06:25:00.130Z,92.10
2019-01-26T06:26:00.146Z,84.60
2019-01-26T06:27:00.065Z,87.40
2019-01-26T06:28:00.041Z,86.20
2019-01-26T06:29:00.054Z,88.60
2019-01-26T06:29:59.976Z,87.80
2019-01-26T06:31:00.062Z,86.10
2019-01-26T06:31:59.921Z,87.90
2019-01-26T06:32:59.884Z,85.20
2019-01-26T06:33:59.864Z,85.10
2019-01-26T06:34:59.884Z,84.20
2019-01-26T06:35:59.803Z,84.60
2019-01-26T06:36:59.792Z,83.20
2019-01-26T06:37:59.741Z,81.50
2019-01-26T06:38:59.716Z,86.60
2019-01-26T06:39:59.703Z,85.90
2019-01-26T06:40:59.656Z,82.30
2019-01-26T06:41:59.724Z,85.90
2019-01-26T06:42:59.595Z,81.70
2019-01-26T06:43:59.632Z,83.50
2019-01-26T06:44:59.544Z,84.30
2019-01-26T06:45:59.542Z,81.20
2019-01-26T06:46:59.484Z,83.80
2019-01-26T06:48:02.304Z,83.60
2019-01-26T06:48:59.423Z,83.20
2019-01-26T06:49:59.395Z,81.60
2019-01-26T06:50:59.364Z,81.60
2019-01-26T06:51:59.372Z,82.40
2019-01-26T06:52:59.305Z,83.40
2019-01-26T06:53:59.382Z,82.50
2019-01-26T06:54:59.256Z,79.40
2019-01-26T06:55:59.293Z,84.80
2019-01-26T06:56:59.192Z,83.00
2019-01-26T06:57:59.201Z,82.70
2019-01-26T06:58:59.133Z,83.70
2019-01-26T06:59:59.126Z,82.00
2019-01-26T07:00:59.122Z,80.70
2019-01-26T07:01:59.044Z,81.20
2019-01-26T07:02:59.044Z,85.60
2019-01-26T07:03:58.993Z,83.90
2019-01-26T07:04:59.053Z,84.60
2019-01-26T07:05:58.926Z,87.60
2019-01-26T07:06:58.892Z,85.70
2019-01-26T07:07:58.965Z,87.10
2019-01-26T07:08:58.845Z,84.00
2019-01-26T07:09:58.872Z,86.60
2019-01-26T07:10:58.783Z,85.20
2019-01-26T07:11:58.760Z,85.40
2019-01-26T07:12:58.722Z,82.00
2019-01-26T07:13:58.792Z,89.50
2019-01-26T07:14:58.662Z,86.30
2019-01-26T07:15:58.711Z,83.10
2019-01-26T07:16:58.613Z,86.90
2019-01-26T07:17:58.575Z,83.10
2019-01-26T07:18:58.548Z,85.30
2019-01-26T07:19:58.635Z,90.70
2019-01-26T07:20:58.482Z,88.30
2019-01-26T07:21:58.549Z,84.40
2019-01-26T07:22:58.429Z,86.40
2019-01-26T07:23:58.457Z,85.90
2019-01-26T07:24:58.374Z,84.30
2019-01-26T07:25:58.364Z,86.60
2019-01-26T07:26:58.311Z,89.20
2019-01-26T07:27:58.392Z,84.40
2019-01-26T07:28:58.272Z,86.30
2019-01-26T07:29:58.233Z,87.10
2019-01-26T07:30:58.281Z,88.90
2019-01-26T07:31:58.162Z,90.40
2019-01-26T07:32:58.193Z,86.40
2019-01-26T07:33:58.114Z,82.80
2019-01-26T07:34:58.103Z,85.00
2019-01-26T07:35:58.053Z,86.50
2019-01-26T07:36:58.122Z,83.30
2019-01-26T07:37:57.992Z,82.70
2019-01-26T07:38:58.034Z,86.80
2019-01-26T07:39:57.932Z,84.20
2019-01-26T07:40:57.942Z,85.00
2019-01-26T07:41:57.872Z,87.70
2019-01-26T07:42:57.951Z,86.60
2019-01-26T07:43:57.813Z,88.00
2019-01-26T07:44:57.794Z,89.30
2019-01-26T07:45:57.766Z,97.30
2019-01-26T07:46:57.774Z,88.20
2019-01-26T07:47:57.702Z,92.40
2019-01-26T07:48:57.792Z,93.70
2019-01-26T07:49:57.650Z,87.90
2019-01-26T07:50:57.639Z,90.60
2019-01-26T07:51:57.711Z,89.50
2019-01-26T07:52:57.583Z,88.10
2019-01-26T07:53:57.628Z,87.90
2019-01-26T07:54:57.492Z,92.40
2019-01-26T07:55:57.473Z,91.90
2019-01-26T07:56:57.432Z,88.10
2019-01-26T07:57:57.432Z,86.70
2019-01-26T07:58:57.370Z,90.80
2019-01-26T07:59:57.443Z,91.00
2019-01-26T08:00:57.324Z,89.30
2019-01-26T08:01:57.352Z,90.00
2019-01-26T08:02:57.265Z,93.50
2019-01-26T08:03:57.262Z,93.00
2019-01-26T08:04:57.201Z,91.90
2019-01-26T08:05:57.271Z,92.60
2019-01-26T08:06:57.183Z,94.20
2019-01-26T08:07:57.112Z,90.40
2019-01-26T08:08:57.195Z,85.50
2019-01-26T08:09:57.053Z,92.00
2019-01-26T08:10:57.104Z,91.40
2019-01-26T08:11:56.989Z,88.90
2019-01-26T08:12:57.012Z,92.00
2019-01-26T08:13:56.942Z,89.90
2019-01-26T08:14:56.924Z,90.50
2019-01-26T08:15:56.885Z,93.80
2019-01-26T08:16:56.939Z,87.80
2019-01-26T08:17:56.822Z,84.70
2019-01-26T08:18:56.843Z,84.90
2019-01-26T08:19:56.769Z,84.30
2019-01-26T08:20:56.750Z,88.70
2019-01-26T08:21:56.702Z,86.90
2019-01-26T08:22:56.685Z,90.30
2019-01-26T08:23:56.656Z,87.90
2019-01-26T08:24:56.739Z,89.30
2019-01-26T08:25:56.582Z,82.40
2019-01-26T08:26:56.591Z,89.20
2019-01-26T08:27:56.528Z,86.70
2019-01-26T08:28:56.612Z,78.80
2019-01-26T08:29:56.474Z,87.30
2019-01-26T08:30:56.512Z,85.90
2019-01-26T08:31:56.424Z,84.50
2019-01-26T08:32:56.525Z,82.80
2019-01-26T08:33:56.434Z,85.30
2019-01-26T08:34:56.323Z,83.80
2019-01-26T08:35:56.354Z,80.70
2019-01-26T08:36:56.261Z,82.60
2019-01-26T08:37:56.258Z,79.50
2019-01-26T08:38:56.253Z,82.80
2019-01-26T08:39:56.182Z,83.20
2019-01-26T08:40:56.166Z,82.00
2019-01-26T08:41:56.112Z,82.80
2019-01-26T08:42:56.173Z,79.50
2019-01-26T08:43:56.061Z,74.20
2019-01-26T08:44:56.037Z,80.60
2019-01-26T08:45:56.095Z,75.30
2019-01-26T08:46:55.970Z,76.20
2019-01-26T08:47:56.004Z,76.40
2019-01-26T08:48:55.913Z,77.00
2019-01-26T08:49:55.892Z,76.20
2019-01-26T08:50:55.852Z,75.60
2019-01-26T08:51:55.921Z,75.90
2019-01-26T08:52:55.801Z,72.80
2019-01-26T08:53:55.831Z,72.10
2019-01-26T08:54:55.745Z,75.10
2019-01-26T08:55:55.752Z,75.80
2019-01-26T08:56:55.673Z,69.20
2019-01-26T08:57:55.761Z,67.50
2019-01-26T08:58:55.614Z,72.20
2019-01-26T08:59:55.674Z,69.10
2019-01-26T09:00:55.563Z,69.40
2019-01-26T09:01:55.539Z,69.40
2019-01-26T09:02:55.599Z,71.30
2019-01-26T09:03:55.477Z,69.50
2019-01-26T09:04:55.510Z,66.60
2019-01-26T09:05:55.413Z,64.30
2019-01-26T09:06:55.413Z,64.00
2019-01-26T09:07:55.352Z,62.80
2019-01-26T09:08:55.427Z,62.70
2019-01-26T09:09:55.293Z,64.40
2019-01-26T09:10:55.344Z,66.20
2019-01-26T09:11:55.233Z,64.40
2019-01-26T09:12:55.243Z,63.50
2019-01-26T09:13:55.176Z,62.60
2019-01-26T09:14:55.256Z,63.00
2019-01-26T09:15:55.112Z,60.10
2019-01-26T09:16:55.105Z,60.40
2019-01-26T09:17:55.053Z,62.00
2019-01-26T09:18:55.072Z,57.30
2019-01-26T09:19:55.002Z,62.60
2019-01-26T09:20:54.981Z,60.00
2019-01-26T09:21:54.947Z,59.40
2019-01-26T09:22:54.912Z,56.90
2019-01-26T09:23:54.902Z,60.60
2019-01-26T09:24:54.853Z,63.60
2019-01-26T09:25:54.915Z,57.60
2019-01-26T09:26:54.801Z,59.80
2019-01-26T09:27:54.775Z,58.40
2019-01-26T09:28:54.750Z,62.60
2019-01-26T09:29:54.732Z,57.00
2019-01-26T09:30:54.676Z,56.10
2019-01-26T09:31:54.742Z,59.50
2019-01-26T09:32:54.624Z,59.30
2019-01-26T09:33:54.665Z,54.80
2019-01-26T09:34:54.564Z,59.30
2019-01-26T09:35:54.562Z,57.40
2019-01-26T09:36:54.506Z,59.00
2019-01-26T09:37:54.601Z,55.30
2019-01-26T09:38:54.441Z,59.60
2019-01-26T09:39:54.494Z,62.60
2019-01-26T09:40:54.396Z,60.40
2019-01-26T09:41:54.404Z,62.40
2019-01-26T09:42:54.339Z,59.90
2019-01-26T09:43:54.301Z,57.00
2019-01-26T09:44:54.272Z,60.60
2019-01-26T09:45:54.323Z,59.50
2019-01-26T09:46:54.210Z,62.50
2019-01-26T09:47:54.230Z,60.90
2019-01-26T09:48:54.172Z,61.10
2019-01-26T09:49:54.133Z,61.60
2019-01-26T09:50:54.140Z,58.80
2019-01-26T09:51:54.075Z,54.90
2019-01-26T09:52:54.050Z,57.20
2019-01-26T09:53:54.012Z,60.50
2019-01-26T09:54:53.982Z,58.60
2019-01-26T09:55:53.955Z,57.50
2019-01-26T09:56:53.981Z,57.30
2019-01-26T09:57:53.899Z,57.90
2019-01-26T09:58:53.894Z,57.90
2019-01-26T09:59:53.830Z,56.70
2019-01-26T10:00:53.904Z,56.60
2019-01-26T10:01:53.772Z,55.30
2019-01-26T10:02:53.815Z,57.70
2019-01-26T10:03:53.734Z,57.50
2019-01-26T10:04:53.721Z,56.50
2019-01-26T10:05:53.742Z,53.30
2019-01-26T10:06:53.631Z,53.70
2019-01-26T10:07:53.644Z,55.80
2019-01-26T10:08:53.572Z,54.60
2019-01-26T10:09:53.674Z,52.40
2019-01-26T10:10:53.513Z,53.70
2019-01-26T10:11:53.565Z,54.90
2019-01-26T10:12:53.468Z,51.80
2019-01-26T10:13:53.473Z,51.70
2019-01-26T10:14:53.402Z,53.70
2019-01-26T10:15:53.496Z,53.10
2019-01-26T10:16:53.398Z,51.30
2019-01-26T10:17:53.409Z,55.90
2019-01-26T10:18:53.973Z,53.00
2019-01-26T10:19:53.306Z,54.40
2019-01-26T10:20:53.222Z,51.90
2019-01-26T10:21:53.203Z,53.40
2019-01-26T10:22:53.173Z,49.10
2019-01-26T10:23:53.236Z,49.30
2019-01-26T10:24:53.112Z,46.50
2019-01-26T10:25:53.145Z,49.00
2019-01-26T10:26:53.050Z,48.60
2019-01-26T10:27:53.022Z,48.00
2019-01-26T10:28:53.055Z,48.40
2019-01-26T10:29:52.975Z,48.80
2019-01-26T10:30:52.964Z,43.90
2019-01-26T10:31:52.916Z,46.80
2019-01-26T10:32:52.885Z,47.60
2019-01-26T10:33:52.853Z,45.60
2019-01-26T10:34:52.891Z,46.30
2019-01-26T10:35:52.795Z,44.60
2019-01-26T10:36:52.805Z,46.90
2019-01-26T10:37:52.732Z,44.10
2019-01-26T10:38:52.814Z,46.00
2019-01-26T10:39:52.673Z,46.00
2019-01-26T10:40:52.727Z,43.80
2019-01-26T10:41:52.625Z,44.10
2019-01-26T10:42:52.633Z,46.60
2019-01-26T10:43:52.634Z,45.10
2019-01-26T10:44:52.533Z,43.30
2019-01-26T10:45:52.558Z,43.60
2019-01-26T10:46:52.484Z,43.80
2019-01-26T10:47:52.563Z,45.20
2019-01-26T10:48:52.456Z,41.70
2019-01-26T10:49:52.475Z,40.20
2019-01-26T10:50:52.360Z,42.40
2019-01-26T10:51:52.390Z,39.50
2019-01-26T10:52:52.301Z,37.60
2019-01-26T10:53:52.295Z,40.70
2019-01-26T10:54:52.251Z,37.90
2019-01-26T10:55:52.302Z,37.60
2019-01-26T10:56:52.192Z,37.10
2019-01-26T10:57:52.227Z,36.70
2019-01-26T10:58:52.135Z,37.40
2019-01-26T10:59:52.102Z,37.80
2019-01-26T11:00:52.084Z,38.00
2019-01-26T11:01:52.140Z,36.10
2019-01-26T11:02:52.024Z,34.50
2019-01-26T11:03:52.053Z,35.20
2019-01-26T11:04:51.968Z,33.10
2019-01-26T11:05:51.935Z,31.70
2019-01-26T11:06:51.963Z,36.00
2019-01-26T11:07:51.884Z,33.60
2019-01-26T11:08:51.872Z,36.70
2019-01-26T11:09:51.823Z,35.30
2019-01-26T11:10:51.794Z,33.50
2019-01-26T11:11:51.775Z,33.90
2019-01-26T11:12:51.795Z,33.60
2019-01-26T11:13:51.729Z,35.00
2019-01-26T11:14:51.702Z,34.20
2019-01-26T11:15:51.651Z,34.90
2019-01-26T11:16:51.723Z,35.00
2019-01-26T11:17:51.605Z,36.40
2019-01-26T11:18:51.640Z,36.80
2019-01-26T11:19:51.544Z,35.70
2019-01-26T11:20:51.542Z,33.50
2019-01-26T11:21:51.485Z,34.00
2019-01-26T11:22:51.551Z,34.30
2019-01-26T11:23:51.423Z,37.60
2019-01-26T11:24:51.461Z,35.40
2019-01-26T11:25:51.381Z,33.00
2019-01-26T11:26:51.343Z,35.90
2019-01-26T11:27:51.318Z,35.40
2019-01-26T11:28:51.392Z,33.70
2019-01-26T11:29:51.255Z,31.80
2019-01-26T11:30:51.316Z,31.90
2019-01-26T11:31:51.206Z,32.00
2019-01-26T11:32:51.176Z,33.40
2019-01-26T11:33:51.213Z,31.60
2019-01-26T11:34:51.112Z,31.20
2019-01-26T11:35:51.123Z,31.30
2019-01-26T11:36:51.100Z,31.50
2019-01-26T11:37:51.040Z,34.90
2019-01-26T11:38:51.041Z,30.90
2019-01-26T11:39:50.986Z,29.90
2019-01-26T11:40:51.051Z,30.20
2019-01-26T11:41:50.923Z,30.20
2019-01-26T11:42:50.965Z,31.20
2019-01-26T11:43:50.861Z,29.90
2019-01-26T11:44:50.876Z,29.60
2019-01-26T11:45:50.807Z,29.80
2019-01-26T11:46:50.887Z,28.10
2019-01-26T11:47:50.763Z,26.80
2019-01-26T11:48:50.723Z,28.20
2019-01-26T11:49:50.816Z,26.80
2019-01-26T11:50:50.672Z,26.40
2019-01-26T11:51:50.713Z,26.30
2019-01-26T11:52:50.613Z,26.60
2019-01-26T11:53:50.583Z,25.60
2019-01-26T11:54:50.559Z,23.60
2019-01-26T11:55:50.644Z,24.10
2019-01-26T11:56:50.504Z,24.40
2019-01-26T11:57:50.553Z,24.80
2019-01-26T11:58:50.458Z,24.90
2019-01-26T11:59:50.421Z,26.00
2019-01-26T12:00:50.464Z,24.20
2019-01-26T12:01:50.372Z,23.90
2019-01-26T12:02:50.390Z,21.40
2019-01-26T12:03:50.303Z,22.30
2019-01-26T12:04:50.294Z,19.10
2019-01-26T12:05:50.253Z,21.40
2019-01-26T12:06:50.300Z,22.20
2019-01-26T12:07:50.206Z,21.10
2019-01-26T12:08:50.218Z,21.00
2019-01-26T12:09:50.142Z,22.70
2019-01-26T12:10:50.121Z,19.90
2019-01-26T12:11:50.123Z,18.80
2019-01-26T12:12:50.064Z,18.60
2019-01-26T12:13:50.134Z,19.60
2019-01-26T12:14:50.004Z,19.80
2019-01-26T12:15:49.985Z,18.90
2019-01-26T12:16:49.953Z,17.70
2019-01-26T12:17:49.952Z,19.00
2019-01-26T12:18:49.907Z,18.80
2019-01-26T12:19:49.962Z,19.60
2019-01-26T12:20:49.845Z,19.00
2019-01-26T12:21:49.877Z,19.90
2019-01-26T12:22:49.797Z,18.90
2019-01-26T12:23:49.783Z,19.10
2019-01-26T12:24:49.744Z,20.60
2019-01-26T12:25:49.802Z,20.30
2019-01-26T12:26:49.708Z,19.00
2019-01-26T12:27:49.663Z,18.00
2019-01-26T12:28:49.711Z,19.10
2019-01-26T12:29:49.624Z,19.60
2019-01-26T12:30:49.623Z,19.10
2019-01-26T12:31:49.664Z,18.40
2019-01-26T12:32:49.526Z,17.70
2019-01-26T12:33:49.543Z,17.80
2019-01-26T12:34:49.483Z,17.10
2019-01-26T12:35:49.555Z,17.50
2019-01-26T12:36:49.423Z,18.60
2019-01-26T12:37:49.392Z,16.90
2019-01-26T12:38:49.472Z,17.00
2019-01-26T12:39:49.333Z,17.00
2019-01-26T12:40:49.383Z,15.50
2019-01-26T12:41:49.284Z,15.60
2019-01-26T12:42:49.254Z,15.10
2019-01-26T12:43:49.341Z,15.70